Overview Statistics Trail Chart Weather Telemetry Raw packets
 

This is the latest recevied weather packets stored in our database for station/object KC0RKM-13. If no packets are shown the sender has not sent any weather packets the latest 10 day(s).

<< 40 41 42 43 44 45 46 >>
Time Temp. Humidity Pressure Rain* Wind** Luminosity Snow
1787934604 27.78° C 51% 1020.8 hPa 0 mm - - -
1787934004 27.78° C 52% 1021 hPa 0 mm - - -
1787933403 27.22° C 53% 1021 hPa 0 mm - - -
1787932804 27.22° C 52% 1021 hPa 0 mm - - -
1787932205 26.11° C 58% 1020.9 hPa 0 mm - - -
1787931603 26.11° C 56% 1021.1 hPa 0 mm - - -
1787930403 25.56° C 62% 1021.4 hPa 0 mm - - -
1787929804 25° C 66% 1021.5 hPa 0 mm - - -
1787929206 25° C 63% 1021.5 hPa 0 mm - - -
1787928604 24.44° C 65% 1021.4 hPa 0 mm - - -
1787928003 24.44° C 64% 1021.2 hPa 0 mm - - -
1787927403 23.89° C 65% 1021.4 hPa 0 mm - - -
1787926804 23.89° C 65% 1021 hPa 0 mm - - -
1787926203 23.89° C 69% 1021 hPa 0 mm - - -
1787925603 22.78° C 73% 1021.7 hPa 0 mm - - -
1787925004 22.78° C 72% 1022.1 hPa 0 mm - - -
1787924404 22.22° C 77% 1022.1 hPa 0 mm - - -
1787923803 22.22° C 72% 1021.9 hPa 0 mm - - -
1787923203 21.67° C 77% 1022 hPa 0 mm - - -
1787922604 21.11° C 79% 1022.2 hPa 0 mm - - -
1787922004 19.44° C 84% 1022.2 hPa 0 mm - - -
1787921403 19.44° C 83% 1022 hPa 0 mm - - -
1787920803 19.44° C 83% 1022.2 hPa 0 mm - - -
1787920204 18.89° C 85% 1022.1 hPa 0 mm - - -
1787919604 17.78° C 90% 1021.7 hPa 0 mm - - -

* Rain latest hour (hover to see other rain measurements)
** Current wind speed in m/s (hover to see current wind gust speed)